createdAt,value
2023-09-08T00:08:20.410Z,11.40
2023-09-08T00:10:48.092Z,9.70
2023-09-08T00:13:15.636Z,11.60
2023-09-08T00:15:43.237Z,11.50
2023-09-08T00:18:11.149Z,13.80
2023-09-08T00:20:38.850Z,14.20
2023-09-08T00:23:06.348Z,14.20
2023-09-08T00:25:33.852Z,12.20
2023-09-08T00:28:01.630Z,13.70
2023-09-08T00:30:29.140Z,12.10
2023-09-08T00:32:56.917Z,15.20
2023-09-08T00:35:24.548Z,18.70
2023-09-08T00:37:52.067Z,15.70
2023-09-08T00:40:19.748Z,17.80
2023-09-08T00:42:48.247Z,15.10
2023-09-08T00:45:15.785Z,15.30
2023-09-08T00:47:43.387Z,13.70
2023-09-08T00:50:11.228Z,15.30
2023-09-08T00:52:39.000Z,14.50
2023-09-08T00:55:06.858Z,14.60
2023-09-08T00:57:34.407Z,13.60
2023-09-08T01:00:02.002Z,16.10
2023-09-08T01:02:29.737Z,15.40
2023-09-08T01:04:57.480Z,16.00
2023-09-08T01:07:24.986Z,11.90
2023-09-08T01:09:52.591Z,14.80
2023-09-08T01:12:20.441Z,15.00
2023-09-08T01:14:48.194Z,11.60
2023-09-08T01:17:15.752Z,18.30
2023-09-08T01:19:43.214Z,13.50
2023-09-08T01:22:30.351Z,17.30
2023-09-08T01:25:13.208Z,13.30
2023-09-08T01:27:43.818Z,11.80
2023-09-08T01:30:11.348Z,15.20
2023-09-08T01:32:38.850Z,16.60
2023-09-08T01:35:06.799Z,11.60
2023-09-08T01:37:34.292Z,14.40
2023-09-08T01:40:01.880Z,17.70
2023-09-08T01:42:29.429Z,14.00
2023-09-08T01:44:57.059Z,11.50
2023-09-08T01:47:24.542Z,13.70
2023-09-08T01:49:52.051Z,13.30
2023-09-08T01:52:20.582Z,12.10
2023-09-08T01:54:48.105Z,15.50
2023-09-08T01:57:15.661Z,14.60
2023-09-08T01:59:43.151Z,16.00
2023-09-08T02:02:10.646Z,18.90
2023-09-08T02:04:38.597Z,14.60
2023-09-08T02:07:06.254Z,15.00
2023-09-08T02:09:34.432Z,15.40
2023-09-08T02:12:02.162Z,14.70
2023-09-08T02:14:30.141Z,17.70
2023-09-08T02:16:58.021Z,16.20
2023-09-08T02:19:25.721Z,16.70
2023-09-08T02:21:53.264Z,13.20
2023-09-08T02:24:20.886Z,12.20
2023-09-08T02:26:48.642Z,14.40
2023-09-08T02:29:16.432Z,12.30
2023-09-08T02:31:44.533Z,13.10
2023-09-08T02:34:13.791Z,12.20
2023-09-08T02:36:41.585Z,10.50
2023-09-08T02:39:09.266Z,10.10
2023-09-08T02:41:36.841Z,11.90
2023-09-08T02:44:04.988Z,12.10
2023-09-08T02:46:32.836Z,11.50
2023-09-08T02:49:00.680Z,10.90
2023-09-08T02:51:28.871Z,12.50
2023-09-08T02:53:56.385Z,11.60
2023-09-08T02:56:23.957Z,15.60
2023-09-08T02:58:51.435Z,10.90
2023-09-08T03:01:21.758Z,12.50
2023-09-08T03:03:49.904Z,11.80
2023-09-08T03:06:20.351Z,12.00
2023-09-08T03:08:47.889Z,15.00
2023-09-08T03:11:15.827Z,11.70
2023-09-08T03:13:43.545Z,12.30
2023-09-08T03:16:12.121Z,15.50
2023-09-08T03:18:39.947Z,13.40
2023-09-08T03:21:10.996Z,11.10
2023-09-08T03:26:07.626Z,12.70
2023-09-08T03:28:36.012Z,13.80
2023-09-08T03:31:04.014Z,10.70
2023-09-08T03:33:33.675Z,14.10
2023-09-08T03:36:02.204Z,12.00
2023-09-08T03:38:30.708Z,13.50
2023-09-08T03:40:58.389Z,13.50
2023-09-08T03:43:25.969Z,13.60
2023-09-08T03:45:53.530Z,13.20
2023-09-08T03:48:21.265Z,18.80
2023-09-08T03:50:48.736Z,13.20
2023-09-08T03:53:16.371Z,15.40
2023-09-08T03:55:43.839Z,16.90
2023-09-08T03:58:11.330Z,15.90
2023-09-08T04:00:38.940Z,19.90
2023-09-08T04:03:06.472Z,22.10
2023-09-08T04:05:34.040Z,19.20
2023-09-08T04:08:02.551Z,14.00
2023-09-08T04:10:30.168Z,20.30
2023-09-08T04:12:57.779Z,13.70
2023-09-08T04:15:25.333Z,22.50
2023-09-08T04:17:52.937Z,24.40
2023-09-08T04:20:20.942Z,15.80
2023-09-08T04:22:48.931Z,15.00
2023-09-08T04:25:16.570Z,18.60
2023-09-08T04:27:45.795Z,16.50
2023-09-08T04:30:14.301Z,20.30
2023-09-08T04:32:42.046Z,23.50
2023-09-08T04:35:09.765Z,28.00
2023-09-08T04:37:38.096Z,31.90
2023-09-08T04:40:07.238Z,33.60
2023-09-08T04:42:34.847Z,28.50
2023-09-08T04:45:02.710Z,27.20
2023-09-08T04:47:30.623Z,24.80
2023-09-08T04:49:58.374Z,23.00
2023-09-08T04:52:26.315Z,27.50
2023-09-08T04:54:53.865Z,23.50
2023-09-08T04:57:23.832Z,19.40
2023-09-08T04:59:54.652Z,21.10
2023-09-08T05:02:22.610Z,19.40
2023-09-08T05:04:50.296Z,17.50
2023-09-08T05:07:20.125Z,14.90
2023-09-08T05:09:48.190Z,26.00
2023-09-08T05:12:15.975Z,16.10
2023-09-08T05:14:43.654Z,19.70
2023-09-08T05:17:11.160Z,17.80
2023-09-08T05:19:39.365Z,15.70
2023-09-08T05:22:08.425Z,16.20
2023-09-08T05:24:36.110Z,15.60
2023-09-08T05:27:03.997Z,13.60
2023-09-08T05:29:31.905Z,15.10
2023-09-08T05:31:59.385Z,13.20
2023-09-08T05:34:27.053Z,16.20
2023-09-08T05:36:54.751Z,16.30
2023-09-08T05:39:22.391Z,16.30
2023-09-08T05:41:49.924Z,15.20
2023-09-08T05:44:17.537Z,15.60
2023-09-08T05:46:45.202Z,14.30
2023-09-08T05:49:13.201Z,15.90
2023-09-08T05:51:40.984Z,13.60
2023-09-08T05:54:08.809Z,16.80
2023-09-08T05:56:38.118Z,16.60
2023-09-08T05:59:05.822Z,12.10
2023-09-08T06:01:34.936Z,15.40
2023-09-08T06:04:03.915Z,17.20
2023-09-08T06:06:32.009Z,16.70
2023-09-08T06:08:59.736Z,15.70
2023-09-08T06:11:27.868Z,16.20
2023-09-08T06:14:03.562Z,14.10
2023-09-08T06:16:41.999Z,14.60
2023-09-08T06:19:33.076Z,14.60
2023-09-08T06:22:13.531Z,13.00
2023-09-08T06:24:47.137Z,18.90
2023-09-08T06:27:18.579Z,14.10
2023-09-08T06:32:44.705Z,11.50
2023-09-08T06:35:25.023Z,12.00
2023-09-08T06:37:56.876Z,9.60
2023-09-08T06:40:39.640Z,7.60
2023-09-08T06:43:33.371Z,9.10
2023-09-08T06:46:20.601Z,9.70
2023-09-08T06:48:50.015Z,9.90
2023-09-08T06:51:24.638Z,7.30
2023-09-08T06:54:04.337Z,10.20
2023-09-08T06:56:43.901Z,9.10
2023-09-08T06:59:25.837Z,9.10
2023-09-08T07:02:05.374Z,9.40
2023-09-08T07:04:44.141Z,13.40
2023-09-08T07:07:25.394Z,15.80
2023-09-08T07:10:06.707Z,5.30
2023-09-08T07:12:49.926Z,8.90
2023-09-08T07:15:23.028Z,9.20
2023-09-08T07:18:09.032Z,6.20
2023-09-08T07:20:51.244Z,7.20
2023-09-08T07:23:20.610Z,9.00
2023-09-08T07:28:44.655Z,6.40
2023-09-08T07:31:16.413Z,6.30
2023-09-08T07:33:55.156Z,9.40
2023-09-08T07:36:26.352Z,4.80
2023-09-08T07:39:01.522Z,9.40
2023-09-08T07:41:38.224Z,4.20
2023-09-08T07:44:10.801Z,4.70
2023-09-08T07:46:54.158Z,8.00
2023-09-08T07:49:41.904Z,3.60
2023-09-08T07:52:36.841Z,5.50
2023-09-08T07:55:46.590Z,4.10
2023-09-08T07:58:31.728Z,3.60
2023-09-08T08:01:42.758Z,6.20
2023-09-08T08:04:25.333Z,3.20
2023-09-08T08:06:56.698Z,6.60
2023-09-08T08:09:24.566Z,5.10
2023-09-08T08:11:52.239Z,4.40
2023-09-08T08:14:19.877Z,4.20
2023-09-08T08:16:47.636Z,5.90
2023-09-08T08:19:15.348Z,3.20
2023-09-08T08:21:43.714Z,3.30
2023-09-08T08:24:11.626Z,5.30
2023-09-08T08:26:39.269Z,4.50
2023-09-08T08:29:06.925Z,5.60
2023-09-08T08:31:34.545Z,5.20
2023-09-08T08:34:02.166Z,3.40
2023-09-08T08:36:30.185Z,3.50
2023-09-08T08:38:57.960Z,4.40
2023-09-08T08:41:25.950Z,4.00
2023-09-08T08:43:53.514Z,2.80
2023-09-08T08:46:22.833Z,6.50
2023-09-08T08:48:53.185Z,4.30
2023-09-08T08:51:20.822Z,3.00
2023-09-08T08:53:48.334Z,5.60
2023-09-08T08:56:16.011Z,4.50
2023-09-08T08:58:43.668Z,3.00
2023-09-08T09:01:12.163Z,2.40
2023-09-08T09:03:39.834Z,2.50
2023-09-08T09:06:07.469Z,4.30
2023-09-08T09:08:35.358Z,3.80
2023-09-08T09:11:03.409Z,1.80
2023-09-08T09:13:30.974Z,5.00
2023-09-08T09:16:02.624Z,5.50
2023-09-08T09:18:32.035Z,1.50
2023-09-08T09:21:00.774Z,3.20
2023-09-08T09:23:32.350Z,3.10
2023-09-08T09:28:29.788Z,5.60
2023-09-08T09:30:59.103Z,2.20
2023-09-08T09:33:26.705Z,4.70
2023-09-08T09:35:55.053Z,4.50
2023-09-08T09:38:23.057Z,4.80
2023-09-08T09:40:50.679Z,4.50
2023-09-08T09:43:18.646Z,3.80
2023-09-08T09:45:46.370Z,6.80
2023-09-08T09:48:14.039Z,3.80
2023-09-08T09:50:42.787Z,4.10
2023-09-08T09:53:12.510Z,5.10
2023-09-08T09:55:41.708Z,4.80
2023-09-08T09:58:09.505Z,4.50
2023-09-08T10:00:38.385Z,5.60
2023-09-08T10:03:07.082Z,2.30
2023-09-08T10:05:34.858Z,6.40
2023-09-08T10:08:02.499Z,3.80
2023-09-08T10:10:31.839Z,3.60
2023-09-08T10:13:03.426Z,7.10
2023-09-08T10:15:31.978Z,5.70
2023-09-08T10:18:01.259Z,3.90
2023-09-08T10:20:30.010Z,4.20
2023-09-08T10:23:18.445Z,3.70
2023-09-08T10:25:50.759Z,5.30
2023-09-08T10:28:18.231Z,2.60
2023-09-08T10:30:45.794Z,3.40
2023-09-08T10:33:13.414Z,4.50
2023-09-08T10:35:42.063Z,5.70
2023-09-08T10:38:26.516Z,3.40
2023-09-08T10:40:54.893Z,6.30
2023-09-08T10:43:22.474Z,3.80
2023-09-08T10:45:50.500Z,4.20
2023-09-08T10:48:18.107Z,3.90
2023-09-08T10:50:45.950Z,2.70
2023-09-08T10:53:17.798Z,3.00
2023-09-08T10:56:14.729Z,6.90
2023-09-08T10:58:44.669Z,3.30
2023-09-08T11:01:20.566Z,4.90
2023-09-08T11:03:51.032Z,2.30
2023-09-08T11:06:20.236Z,5.70
2023-09-08T11:08:48.988Z,5.00
2023-09-08T11:11:17.511Z,7.10
2023-09-08T11:13:48.397Z,4.40
2023-09-08T11:16:17.325Z,4.60
2023-09-08T11:18:45.050Z,6.20
2023-09-08T11:21:12.750Z,3.30
2023-09-08T11:23:40.297Z,5.40
2023-09-08T11:26:10.004Z,6.00
2023-09-08T11:28:38.301Z,5.00
2023-09-08T11:31:06.406Z,2.80
2023-09-08T11:33:35.424Z,4.70
2023-09-08T11:36:03.026Z,3.10
2023-09-08T11:38:31.175Z,3.90
2023-09-08T11:40:59.394Z,5.60
2023-09-08T11:43:27.128Z,3.60
2023-09-08T11:45:54.691Z,5.00
2023-09-08T11:48:22.440Z,3.80
2023-09-08T11:50:49.945Z,6.70
2023-09-08T11:53:20.765Z,4.40
2023-09-08T11:55:48.963Z,3.60
2023-09-08T11:58:16.826Z,6.40
2023-09-08T12:00:44.473Z,3.00
2023-09-08T12:03:18.979Z,6.60
2023-09-08T12:05:46.537Z,4.00
2023-09-08T12:08:14.013Z,6.40
2023-09-08T12:10:42.127Z,3.20
2023-09-08T12:13:10.737Z,3.60
2023-09-08T12:15:39.496Z,2.90
2023-09-08T12:18:09.048Z,6.00
2023-09-08T12:20:37.681Z,2.20
2023-09-08T12:23:20.501Z,5.50
2023-09-08T12:25:48.821Z,3.50
2023-09-08T12:28:18.680Z,8.70
2023-09-08T12:30:46.274Z,6.50
2023-09-08T12:33:16.429Z,5.70
2023-09-08T12:35:45.780Z,3.00
2023-09-08T12:38:14.167Z,2.50
2023-09-08T12:40:42.985Z,2.50
2023-09-08T12:43:14.094Z,4.60
2023-09-08T12:45:50.456Z,5.10
2023-09-08T12:48:18.040Z,7.30
2023-09-08T12:50:45.621Z,6.90
2023-09-08T12:53:13.152Z,6.30
2023-09-08T12:55:40.719Z,6.50
2023-09-08T12:58:08.222Z,8.50
2023-09-08T13:00:35.892Z,5.90
2023-09-08T13:03:03.780Z,10.10
2023-09-08T13:05:33.547Z,11.80
2023-09-08T13:08:01.253Z,4.30
2023-09-08T13:10:28.798Z,6.20
2023-09-08T13:12:56.499Z,6.30
2023-09-08T13:15:24.635Z,5.20
2023-09-08T13:17:52.651Z,6.40
2023-09-08T13:20:20.906Z,13.40
2023-09-08T13:22:48.974Z,4.50
2023-09-08T13:25:16.618Z,8.80
2023-09-08T13:27:44.210Z,4.00
2023-09-08T13:30:15.813Z,5.90
2023-09-08T13:32:44.131Z,6.30
2023-09-08T13:35:12.499Z,7.50
2023-09-08T13:37:40.128Z,6.00
2023-09-08T13:40:09.059Z,7.90
2023-09-08T13:42:37.567Z,4.90
2023-09-08T13:45:06.155Z,5.00
2023-09-08T13:47:34.621Z,6.00
2023-09-08T13:50:05.766Z,3.80
2023-09-08T13:52:37.772Z,13.20
2023-09-08T13:57:41.305Z,7.50
2023-09-08T14:00:15.231Z,4.30
2023-09-08T14:02:50.551Z,6.20
2023-09-08T14:05:20.795Z,3.70
2023-09-08T14:08:05.327Z,7.00
2023-09-08T14:10:40.718Z,5.40
2023-09-08T14:13:12.791Z,5.40
2023-09-08T14:15:40.475Z,3.50
2023-09-08T14:18:08.145Z,5.00
2023-09-08T14:20:35.636Z,3.70
2023-09-08T14:23:03.596Z,4.30
2023-09-08T14:25:31.205Z,8.60
2023-09-08T14:28:01.100Z,3.90
2023-09-08T14:30:29.119Z,2.90
2023-09-08T14:32:56.652Z,8.60
2023-09-08T14:35:24.170Z,9.10
2023-09-08T14:37:51.741Z,4.60
2023-09-08T14:40:19.243Z,5.00
2023-09-08T14:42:46.874Z,4.40
2023-09-08T14:45:14.415Z,5.70
2023-09-08T14:47:42.105Z,5.10
2023-09-08T14:50:10.564Z,4.70
2023-09-08T14:52:38.114Z,5.20
2023-09-08T14:55:05.830Z,15.40
2023-09-08T14:57:33.554Z,6.40
2023-09-08T15:00:01.140Z,3.90
2023-09-08T15:02:28.712Z,4.20
2023-09-08T15:04:56.316Z,7.80
2023-09-08T15:07:24.012Z,4.20
2023-09-08T15:09:51.493Z,7.50
2023-09-08T15:12:19.125Z,3.20
2023-09-08T15:14:46.677Z,3.90
2023-09-08T15:17:14.282Z,4.20
2023-09-08T15:19:41.878Z,4.50
2023-09-08T15:22:09.403Z,3.80
2023-09-08T15:24:36.900Z,4.70
2023-09-08T15:27:04.942Z,4.50
2023-09-08T15:29:32.616Z,3.10
2023-09-08T15:32:00.233Z,3.30
2023-09-08T15:34:27.779Z,3.10
2023-09-08T15:36:55.533Z,5.60
2023-09-08T15:39:23.374Z,4.10
2023-09-08T15:41:51.420Z,4.10
2023-09-08T15:44:19.523Z,4.30
2023-09-08T15:46:47.380Z,2.60
2023-09-08T15:49:15.422Z,3.60
2023-09-08T15:51:42.968Z,3.20
2023-09-08T15:57:13.892Z,6.20
2023-09-08T15:59:41.681Z,3.10
2023-09-08T16:02:09.554Z,4.10
2023-09-08T16:04:37.685Z,3.00
2023-09-08T16:07:05.780Z,4.10
2023-09-08T16:09:33.333Z,4.70
2023-09-08T16:12:00.920Z,3.60
2023-09-08T16:14:28.413Z,5.00
2023-09-08T16:16:56.144Z,8.10
2023-09-08T16:19:23.722Z,6.20
2023-09-08T16:21:52.298Z,4.90
2023-09-08T16:24:19.750Z,8.20
2023-09-08T16:26:47.326Z,4.80
2023-09-08T16:29:14.927Z,5.80
2023-09-08T16:31:42.532Z,4.40
2023-09-08T16:34:10.091Z,3.80
2023-09-08T16:36:37.669Z,7.20
2023-09-08T16:39:05.539Z,7.10
2023-09-08T16:41:33.026Z,7.10
2023-09-08T16:44:00.494Z,6.00
2023-09-08T16:46:28.344Z,3.60
2023-09-08T16:48:55.913Z,4.50
2023-09-08T16:51:23.526Z,4.70
2023-09-08T16:53:50.996Z,4.90
2023-09-08T16:56:18.674Z,4.80
2023-09-08T16:58:46.272Z,10.60
2023-09-08T17:01:13.767Z,3.60
2023-09-08T17:03:41.710Z,4.60
2023-09-08T17:06:09.668Z,4.10
2023-09-08T17:08:37.113Z,5.40
2023-09-08T17:11:05.589Z,8.80
2023-09-08T17:13:34.609Z,4.60
2023-09-08T17:16:03.301Z,7.40
2023-09-08T17:18:31.287Z,5.50
2023-09-08T17:20:59.338Z,5.50
2023-09-08T17:23:27.124Z,3.70
2023-09-08T17:25:54.827Z,4.50
2023-09-08T17:28:22.583Z,3.20
2023-09-08T17:30:50.113Z,4.70
2023-09-08T17:33:17.707Z,4.80
2023-09-08T17:35:45.314Z,7.70
2023-09-08T17:38:12.932Z,4.10
2023-09-08T17:40:40.469Z,5.10
2023-09-08T17:43:08.220Z,6.40
2023-09-08T17:45:35.944Z,12.20
2023-09-08T17:48:03.663Z,8.80
2023-09-08T17:50:31.274Z,5.80
2023-09-08T17:52:58.873Z,4.60
2023-09-08T17:55:26.415Z,9.70
2023-09-08T17:57:54.217Z,11.50
2023-09-08T18:00:21.833Z,11.30
2023-09-08T18:02:49.614Z,6.40
2023-09-08T18:05:17.435Z,5.00
2023-09-08T18:07:46.178Z,8.00
2023-09-08T18:10:15.187Z,6.70
2023-09-08T18:12:42.871Z,6.20
2023-09-08T18:15:11.272Z,7.70
2023-09-08T18:17:38.871Z,5.50
2023-09-08T18:20:06.953Z,2.70
2023-09-08T18:22:35.326Z,5.70
2023-09-08T18:25:02.934Z,6.30
2023-09-08T18:27:31.320Z,8.10
2023-09-08T18:29:58.969Z,3.80
2023-09-08T18:32:26.733Z,5.50
2023-09-08T18:34:55.050Z,5.00
2023-09-08T18:37:22.826Z,4.60
2023-09-08T18:39:50.461Z,4.20
2023-09-08T18:42:18.040Z,9.30
2023-09-08T18:44:45.630Z,6.60
2023-09-08T18:47:13.210Z,5.90
2023-09-08T18:49:40.786Z,6.20
2023-09-08T18:52:08.300Z,7.90
2023-09-08T18:54:35.836Z,4.30
2023-09-08T18:57:03.554Z,6.80
2023-09-08T18:59:31.053Z,9.00
2023-09-08T19:01:59.307Z,6.40
2023-09-08T19:04:27.041Z,9.80
2023-09-08T19:06:56.877Z,6.30
2023-09-08T19:09:24.950Z,5.80
2023-09-08T19:11:52.715Z,4.10
2023-09-08T19:14:26.266Z,5.40
2023-09-08T19:16:55.638Z,5.30
2023-09-08T19:19:23.334Z,5.20
2023-09-08T19:21:50.846Z,6.90
2023-09-08T19:24:18.991Z,4.20
2023-09-08T19:26:46.600Z,4.30
2023-09-08T19:29:14.108Z,8.20
2023-09-08T19:31:41.877Z,6.30
2023-09-08T19:34:09.687Z,9.00
2023-09-08T19:36:38.747Z,6.30
2023-09-08T19:39:08.189Z,7.30
2023-09-08T19:41:36.946Z,5.30
2023-09-08T19:44:05.256Z,11.20
2023-09-08T19:46:39.624Z,7.20
2023-09-08T19:49:07.523Z,5.70
2023-09-08T19:51:35.160Z,5.30
2023-09-08T19:54:03.427Z,5.60
2023-09-08T19:56:30.929Z,5.70
2023-09-08T19:58:59.909Z,9.30
2023-09-08T20:01:29.038Z,7.80
2023-09-08T20:07:23.107Z,5.90
2023-09-08T20:09:52.838Z,4.10
2023-09-08T20:12:22.636Z,7.00
2023-09-08T20:14:49.466Z,6.20
2023-09-08T20:17:16.567Z,5.20
2023-09-08T20:19:43.413Z,5.40
2023-09-08T20:22:11.691Z,6.90
2023-09-08T20:24:40.266Z,8.30
2023-09-08T20:27:11.136Z,13.20
2023-09-08T20:29:38.692Z,6.00
2023-09-08T20:32:06.729Z,8.40
2023-09-08T20:34:33.496Z,6.90
2023-09-08T20:37:00.205Z,5.70
2023-09-08T20:39:27.050Z,6.00
2023-09-08T20:41:54.187Z,6.90
2023-09-08T20:44:21.050Z,6.70
2023-09-08T20:46:47.796Z,5.90
2023-09-08T20:49:17.184Z,5.20
2023-09-08T20:51:43.873Z,9.20
2023-09-08T20:54:10.620Z,5.90
2023-09-08T20:56:38.505Z,5.60
2023-09-08T20:59:05.537Z,10.70
2023-09-08T21:01:32.449Z,6.00
2023-09-08T21:03:59.627Z,6.40
2023-09-08T21:06:27.261Z,7.40
2023-09-08T21:08:53.993Z,6.90
2023-09-08T21:11:21.100Z,6.60
2023-09-08T21:13:47.886Z,6.90
2023-09-08T21:16:14.537Z,4.70
2023-09-08T21:18:41.486Z,8.00
2023-09-08T21:21:08.242Z,4.90
2023-09-08T21:23:35.209Z,10.30
2023-09-08T21:26:05.162Z,4.90
2023-09-08T21:28:32.501Z,7.00
2023-09-08T21:31:05.162Z,5.90
2023-09-08T21:33:32.078Z,6.00
2023-09-08T21:35:58.883Z,5.30
2023-09-08T21:38:25.566Z,7.60
2023-09-08T21:40:53.209Z,4.60
2023-09-08T21:43:19.848Z,7.10
2023-09-08T21:45:51.578Z,8.40
2023-09-08T21:48:19.072Z,3.80
2023-09-08T21:50:46.235Z,9.00
2023-09-08T21:53:12.950Z,8.50
2023-09-08T21:55:39.677Z,3.60
2023-09-08T21:58:06.378Z,6.00
2023-09-08T22:00:33.386Z,5.10
2023-09-08T22:03:00.664Z,6.80
2023-09-08T22:05:28.122Z,6.60
2023-09-08T22:07:54.987Z,4.90
2023-09-08T22:10:22.389Z,5.00
2023-09-08T22:12:49.306Z,4.20
2023-09-08T22:15:16.235Z,4.70
2023-09-08T22:17:43.303Z,11.70
2023-09-08T22:20:14.408Z,6.60
2023-09-08T22:22:41.627Z,6.00
2023-09-08T22:25:11.564Z,7.30
2023-09-08T22:27:39.003Z,14.80
2023-09-08T22:30:06.597Z,7.80
2023-09-08T22:32:33.519Z,7.00
2023-09-08T22:35:00.285Z,6.20
2023-09-08T22:37:26.964Z,5.50
2023-09-08T22:39:53.640Z,5.60
2023-09-08T22:42:20.187Z,6.50
2023-09-08T22:44:46.835Z,7.00
2023-09-08T22:47:13.518Z,9.40
2023-09-08T22:49:55.597Z,6.90
2023-09-08T22:52:22.362Z,6.00
2023-09-08T22:54:49.129Z,8.40
2023-09-08T22:57:15.845Z,7.10
2023-09-08T22:59:42.787Z,7.00
2023-09-08T23:02:09.598Z,6.00
2023-09-08T23:04:36.731Z,5.20
2023-09-08T23:07:04.102Z,5.70
2023-09-08T23:09:30.783Z,6.60
2023-09-08T23:11:58.200Z,10.20
2023-09-08T23:14:25.159Z,9.20
2023-09-08T23:16:53.219Z,7.50
2023-09-08T23:19:20.755Z,6.80
2023-09-08T23:21:48.045Z,5.50
2023-09-08T23:24:14.806Z,6.50
2023-09-08T23:26:41.662Z,5.30
2023-09-08T23:29:08.281Z,4.60
2023-09-08T23:31:35.238Z,9.20
2023-09-08T23:34:02.725Z,5.50
2023-09-08T23:36:29.755Z,5.20
2023-09-08T23:38:56.314Z,5.00
2023-09-08T23:41:23.072Z,6.50
2023-09-08T23:43:50.671Z,6.40
2023-09-08T23:46:17.486Z,7.10
2023-09-08T23:48:44.584Z,8.60
2023-09-08T23:51:11.207Z,5.90
2023-09-08T23:53:39.708Z,6.60
2023-09-08T23:56:06.641Z,7.50
2023-09-08T23:58:33.602Z,7.00
